createdAt,value
2019-05-20T00:03:10.953Z,30.55
2019-05-20T00:05:41.924Z,35.80
2019-05-20T00:08:12.831Z,33.78
2019-05-20T00:10:43.697Z,38.45
2019-05-20T00:13:14.775Z,33.58
2019-05-20T00:15:45.587Z,40.58
2019-05-20T00:18:16.358Z,30.37
2019-05-20T00:20:47.239Z,37.00
2019-05-20T00:23:18.187Z,34.63
2019-05-20T00:25:48.945Z,32.60
2019-05-20T00:28:19.814Z,74.27
2019-05-20T00:30:50.910Z,53.98
2019-05-20T00:33:21.696Z,59.95
2019-05-20T00:35:52.784Z,44.48
2019-05-20T00:38:23.678Z,53.08
2019-05-20T00:40:54.639Z,67.15
2019-05-20T00:43:25.649Z,72.97
2019-05-20T00:45:56.477Z,61.50
2019-05-20T00:48:27.342Z,65.10
2019-05-20T00:50:58.516Z,36.33
2019-05-20T00:53:29.475Z,42.80
2019-05-20T00:56:00.859Z,66.02
2019-05-20T00:58:31.751Z,75.00
2019-05-20T01:01:02.542Z,30.08
2019-05-20T01:03:33.816Z,38.33
2019-05-20T01:06:04.719Z,56.58
2019-05-20T01:08:35.995Z,56.23
2019-05-20T01:11:06.918Z,56.73
2019-05-20T01:13:38.365Z,54.13
2019-05-20T01:16:09.981Z,42.67
2019-05-20T01:18:42.367Z,49.70
2019-05-20T01:21:13.357Z,57.03
2019-05-20T01:23:44.575Z,47.38
2019-05-20T01:26:19.980Z,56.73
2019-05-20T01:28:50.644Z,54.38
2019-05-20T01:31:21.495Z,42.73
2019-05-20T01:33:53.456Z,49.55
2019-05-20T01:36:24.404Z,48.35
2019-05-20T01:38:55.332Z,40.45
2019-05-20T01:41:26.549Z,31.35
2019-05-20T01:43:57.427Z,28.85
2019-05-20T01:46:28.480Z,25.72
2019-05-20T01:48:59.445Z,38.53
2019-05-20T01:51:30.513Z,33.23
2019-05-20T01:54:01.332Z,32.20
2019-05-20T01:56:32.265Z,32.35
2019-05-20T01:59:03.219Z,27.75
2019-05-20T02:01:52.755Z,25.50
2019-05-20T02:04:23.709Z,32.53
2019-05-20T02:06:54.414Z,42.85
2019-05-20T02:09:25.450Z,30.27
2019-05-20T02:11:56.449Z,27.45
2019-05-20T02:14:28.542Z,23.32
2019-05-20T02:17:02.505Z,34.10
2019-05-20T02:19:31.593Z,31.15
2019-05-20T02:22:02.513Z,30.32
2019-05-20T02:24:33.313Z,33.73
2019-05-20T02:27:23.416Z,28.87
2019-05-20T02:29:54.327Z,28.12
2019-05-20T02:32:25.192Z,38.83
2019-05-20T02:34:56.208Z,29.12
2019-05-20T02:37:27.132Z,30.52
2019-05-20T02:39:57.970Z,30.72
2019-05-20T02:42:29.160Z,29.98
2019-05-20T02:44:59.993Z,28.67
2019-05-20T02:47:30.723Z,28.10
2019-05-20T02:50:02.373Z,27.95
2019-05-20T02:52:33.320Z,24.37
2019-05-20T02:55:04.550Z,23.05
2019-05-20T02:57:35.517Z,26.20
2019-05-20T03:00:10.890Z,30.15
2019-05-20T03:02:41.444Z,24.85
2019-05-20T03:05:12.735Z,28.73
2019-05-20T03:07:43.779Z,25.20
2019-05-20T03:10:15.215Z,26.25
2019-05-20T03:12:46.033Z,28.02
2019-05-20T03:15:17.247Z,25.90
2019-05-20T03:17:48.082Z,22.70
2019-05-20T03:20:19.031Z,22.62
2019-05-20T03:22:50.076Z,27.80
2019-05-20T03:25:20.928Z,27.02
2019-05-20T03:27:51.992Z,23.70
2019-05-20T03:30:23.212Z,25.62
2019-05-20T03:32:54.050Z,31.62
2019-05-20T03:35:25.102Z,29.35
2019-05-20T03:37:58.596Z,23.67
2019-05-20T03:40:29.421Z,22.80
2019-05-20T03:43:00.465Z,23.32
2019-05-20T03:45:31.720Z,27.05
2019-05-20T03:48:02.639Z,27.22
2019-05-20T03:50:33.811Z,21.55
2019-05-20T03:53:04.697Z,22.27
2019-05-20T03:55:35.740Z,21.73
2019-05-20T03:58:06.516Z,24.40
2019-05-20T04:00:39.817Z,24.55
2019-05-20T04:03:10.844Z,19.17
2019-05-20T04:05:42.153Z,30.15
2019-05-20T04:08:13.262Z,34.80
2019-05-20T04:10:44.166Z,21.95
2019-05-20T04:13:15.288Z,28.80
2019-05-20T04:15:46.314Z,33.98
2019-05-20T04:18:17.220Z,27.17
2019-05-20T04:20:48.167Z,21.07
2019-05-20T04:23:19.267Z,23.95
2019-05-20T04:25:50.621Z,32.75
2019-05-20T04:28:21.657Z,22.93
2019-05-20T04:30:52.735Z,21.00
2019-05-20T04:33:23.785Z,32.50
2019-05-20T04:35:54.863Z,22.93
2019-05-20T04:38:25.947Z,24.25
2019-05-20T04:40:56.894Z,24.00
2019-05-20T04:43:27.727Z,21.17
2019-05-20T04:45:58.638Z,26.73
2019-05-20T04:48:29.648Z,22.13
2019-05-20T04:51:01.894Z,31.85
2019-05-20T04:53:32.745Z,24.85
2019-05-20T04:56:03.935Z,32.58
2019-05-20T04:58:34.956Z,23.30
2019-05-20T05:01:05.939Z,20.72
2019-05-20T05:03:37.244Z,25.45
2019-05-20T05:06:09.164Z,23.92
2019-05-20T05:08:40.574Z,28.95
2019-05-20T05:11:11.672Z,44.40
2019-05-20T05:13:45.483Z,30.00
2019-05-20T05:16:16.386Z,29.37
2019-05-20T05:18:48.054Z,38.00
2019-05-20T05:21:19.770Z,43.92
2019-05-20T05:23:58.739Z,29.45
2019-05-20T05:26:23.612Z,23.27
2019-05-20T05:28:59.911Z,25.00
2019-05-20T05:31:35.968Z,24.05
2019-05-20T05:34:06.639Z,22.87
2019-05-20T05:36:38.141Z,24.27
2019-05-20T05:39:10.410Z,23.70
2019-05-20T05:41:41.120Z,19.07
2019-05-20T05:44:13.625Z,20.92
2019-05-20T05:46:44.868Z,22.37
2019-05-20T05:49:15.684Z,34.73
2019-05-20T05:51:46.770Z,20.88
2019-05-20T05:54:17.533Z,29.85
2019-05-20T05:56:48.362Z,28.02
2019-05-20T05:59:19.880Z,25.40
2019-05-20T06:02:01.787Z,23.18
2019-05-20T06:04:32.358Z,16.48
2019-05-20T06:07:03.288Z,20.62
2019-05-20T06:09:34.226Z,32.08
2019-05-20T06:12:05.230Z,28.27
2019-05-20T06:14:36.217Z,19.55
2019-05-20T06:17:07.138Z,23.30
2019-05-20T06:19:38.030Z,23.62
2019-05-20T06:22:09.200Z,20.50
2019-05-20T06:24:40.021Z,35.48
2019-05-20T06:27:11.469Z,27.35
2019-05-20T06:33:29.422Z,101.70
2019-05-20T06:36:00.764Z,31.10
2019-05-20T06:38:33.554Z,28.98
2019-05-20T06:41:06.323Z,28.90
2019-05-20T06:43:37.407Z,29.95
2019-05-20T06:46:08.320Z,20.25
2019-05-20T06:48:39.691Z,16.73
2019-05-20T06:51:10.626Z,30.02
2019-05-20T06:53:41.621Z,20.17
2019-05-20T06:56:12.611Z,19.10
2019-05-20T06:58:43.403Z,22.25
2019-05-20T07:01:14.462Z,18.92
2019-05-20T07:03:45.275Z,22.30
2019-05-20T07:06:16.024Z,18.32
2019-05-20T07:08:46.782Z,21.68
2019-05-20T07:11:17.527Z,26.87
2019-05-20T07:13:48.423Z,22.00
2019-05-20T07:16:20.028Z,28.83
2019-05-20T07:18:51.415Z,22.60
2019-05-20T07:21:22.543Z,21.37
2019-05-20T07:23:54.399Z,18.12
2019-05-20T07:26:25.138Z,17.42
2019-05-20T07:28:56.130Z,17.30
2019-05-20T07:31:26.993Z,15.53
2019-05-20T07:33:58.508Z,18.45
2019-05-20T07:36:29.356Z,35.92
2019-05-20T07:39:00.556Z,23.32
2019-05-20T07:41:31.523Z,28.75
2019-05-20T07:44:02.737Z,21.75
2019-05-20T07:46:34.048Z,26.10
2019-05-20T07:49:05.359Z,23.47
2019-05-20T07:51:36.388Z,31.65
2019-05-20T07:54:07.508Z,21.25
2019-05-20T07:56:41.920Z,23.57
2019-05-20T07:59:15.676Z,17.45
2019-05-20T08:01:46.742Z,18.00
2019-05-20T08:04:18.252Z,22.45
2019-05-20T08:06:49.397Z,20.23
2019-05-20T08:09:20.314Z,17.35
2019-05-20T08:11:51.287Z,24.00
2019-05-20T08:14:23.081Z,17.90
2019-05-20T08:16:53.979Z,21.20
2019-05-20T08:19:24.819Z,24.12
2019-05-20T08:21:56.643Z,22.25
2019-05-20T08:24:28.131Z,25.08
2019-05-20T08:26:59.084Z,20.27
2019-05-20T08:29:30.575Z,24.23
2019-05-20T08:32:01.361Z,25.08
2019-05-20T08:34:32.521Z,22.48
2019-05-20T08:37:03.599Z,19.23
2019-05-20T08:39:34.610Z,19.23
2019-05-20T08:42:06.067Z,18.82
2019-05-20T08:44:36.930Z,20.25
2019-05-20T08:47:07.846Z,29.57
2019-05-20T08:49:39.466Z,26.33
2019-05-20T08:52:11.316Z,19.55
2019-05-20T08:54:42.178Z,18.75
2019-05-20T08:57:14.523Z,22.17
2019-05-20T08:59:45.688Z,16.60
2019-05-20T09:02:16.644Z,17.82
2019-05-20T09:04:48.435Z,18.50
2019-05-20T09:07:20.429Z,16.52
2019-05-20T09:09:51.930Z,22.25
2019-05-20T09:12:22.869Z,17.50
2019-05-20T09:14:53.854Z,22.58
2019-05-20T09:17:25.247Z,15.25
2019-05-20T09:19:56.150Z,16.75
2019-05-20T09:22:27.696Z,17.95
2019-05-20T09:24:58.783Z,17.52
2019-05-20T09:27:29.511Z,25.57
2019-05-20T09:30:00.431Z,34.48
2019-05-20T09:32:32.333Z,22.30
2019-05-20T09:35:03.942Z,24.23
2019-05-20T09:37:34.820Z,19.95
2019-05-20T09:40:06.825Z,26.55
2019-05-20T09:42:40.654Z,23.77
2019-05-20T09:45:10.111Z,22.52
2019-05-20T09:47:41.064Z,24.02
2019-05-20T09:50:12.114Z,20.70
2019-05-20T09:52:42.699Z,27.93
2019-05-20T09:55:13.868Z,26.30
2019-05-20T09:57:45.320Z,23.00
2019-05-20T10:00:17.500Z,20.45
2019-05-20T10:02:49.286Z,32.40
2019-05-20T10:05:20.388Z,31.12
2019-05-20T10:07:51.336Z,31.30
2019-05-20T10:10:23.953Z,21.50
2019-05-20T10:12:54.724Z,18.12
2019-05-20T10:15:25.611Z,17.17
2019-05-20T10:17:56.425Z,21.97
2019-05-20T10:20:27.332Z,15.95
2019-05-20T10:22:58.339Z,13.95
2019-05-20T10:25:29.162Z,16.77
2019-05-20T10:27:59.878Z,18.25
2019-05-20T10:30:30.857Z,15.40
2019-05-20T10:33:01.736Z,17.50
2019-05-20T10:35:32.623Z,16.93
2019-05-20T10:38:03.499Z,18.50
2019-05-20T10:40:34.313Z,19.30
2019-05-20T10:43:05.249Z,16.82
2019-05-20T10:45:36.358Z,16.90
2019-05-20T10:48:08.993Z,22.15
2019-05-20T10:50:40.663Z,21.73
2019-05-20T10:53:11.471Z,25.95
2019-05-20T10:55:42.304Z,21.35
2019-05-20T10:58:13.269Z,27.70
2019-05-20T11:01:01.051Z,22.73
2019-05-20T11:03:16.379Z,24.55
2019-05-20T11:05:47.333Z,21.12
2019-05-20T11:08:18.219Z,22.48
2019-05-20T11:10:49.169Z,19.65
2019-05-20T11:13:20.487Z,20.27
2019-05-20T11:15:51.474Z,20.40
2019-05-20T11:18:22.412Z,20.20
2019-05-20T11:20:53.220Z,23.38
2019-05-20T11:23:24.103Z,23.90
2019-05-20T11:25:55.852Z,18.98
2019-05-20T11:28:26.678Z,20.15
2019-05-20T11:30:57.620Z,22.40
2019-05-20T11:33:28.472Z,22.48
2019-05-20T11:35:59.289Z,21.57
2019-05-20T11:38:31.163Z,22.42
2019-05-20T11:41:01.864Z,25.77
2019-05-20T11:43:32.681Z,23.52
2019-05-20T11:46:03.671Z,21.48
2019-05-20T11:48:34.418Z,23.15
2019-05-20T11:51:05.496Z,23.52
2019-05-20T11:53:36.351Z,25.48
2019-05-20T11:56:07.443Z,22.65
2019-05-20T11:58:38.301Z,23.73
2019-05-20T12:01:09.457Z,30.43
2019-05-20T12:03:40.295Z,31.68
2019-05-20T12:06:11.133Z,28.75
2019-05-20T12:08:41.986Z,25.82
2019-05-20T12:11:12.744Z,24.02
2019-05-20T12:13:43.385Z,28.40
2019-05-20T12:16:14.167Z,26.50
2019-05-20T12:18:45.309Z,23.18
2019-05-20T12:21:16.137Z,25.57
2019-05-20T12:23:47.227Z,23.35
2019-05-20T12:26:18.079Z,23.98
2019-05-20T12:28:48.648Z,28.23
2019-05-20T12:31:19.564Z,26.97
2019-05-20T12:33:50.463Z,27.85
2019-05-20T12:36:21.324Z,26.25
2019-05-20T12:38:52.083Z,23.07
2019-05-20T12:41:23.080Z,29.95
2019-05-20T12:44:10.875Z,25.57
2019-05-20T12:46:25.998Z,29.80
2019-05-20T12:48:56.944Z,32.95
2019-05-20T12:51:27.928Z,30.40
2019-05-20T12:53:58.724Z,28.92
2019-05-20T12:56:29.625Z,33.98
2019-05-20T12:59:00.422Z,36.77
2019-05-20T13:01:31.235Z,32.95
2019-05-20T13:04:02.076Z,34.53
2019-05-20T13:06:32.920Z,40.73
2019-05-20T13:09:03.974Z,39.40
2019-05-20T13:11:34.721Z,40.48
2019-05-20T13:14:05.534Z,39.40
2019-05-20T13:16:36.472Z,40.33
2019-05-20T13:19:07.223Z,44.30
2019-05-20T13:21:38.066Z,43.25
2019-05-20T13:24:08.726Z,38.00
2019-05-20T13:26:39.516Z,41.23
2019-05-20T13:29:10.433Z,38.02
2019-05-20T13:31:41.156Z,34.55
2019-05-20T13:34:12.012Z,32.93
2019-05-20T13:36:42.829Z,35.38
2019-05-20T13:39:13.705Z,34.35
2019-05-20T13:41:44.612Z,35.58
2019-05-20T13:44:15.448Z,30.72
2019-05-20T13:46:46.287Z,35.60
2019-05-20T13:49:17.408Z,40.28
2019-05-20T13:51:48.302Z,35.95
2019-05-20T13:54:19.093Z,30.95
2019-05-20T13:56:49.830Z,34.30
2019-05-20T13:59:20.739Z,34.13
2019-05-20T14:01:51.636Z,33.85
2019-05-20T14:04:22.612Z,29.25
2019-05-20T14:06:53.297Z,32.40
2019-05-20T14:09:24.169Z,29.02
2019-05-20T14:11:54.965Z,29.67
2019-05-20T14:14:25.955Z,31.23
2019-05-20T14:16:56.862Z,33.95
2019-05-20T14:19:27.831Z,35.45
2019-05-20T14:21:58.614Z,30.00
2019-05-20T14:24:29.405Z,33.42
2019-05-20T14:27:00.419Z,33.90
2019-05-20T14:29:31.216Z,29.02
2019-05-20T14:32:02.813Z,29.42
2019-05-20T14:34:34.054Z,28.70
2019-05-20T14:37:04.797Z,28.47
2019-05-20T14:39:35.668Z,29.55
2019-05-20T14:42:06.341Z,32.33
2019-05-20T14:44:37.243Z,30.02
2019-05-20T14:47:08.198Z,28.95
2019-05-20T14:49:38.879Z,28.90
2019-05-20T14:52:09.702Z,26.77
2019-05-20T14:54:40.344Z,27.45
2019-05-20T14:57:11.411Z,28.20
2019-05-20T14:59:42.220Z,26.95
2019-05-20T15:02:13.110Z,28.42
2019-05-20T15:04:44.321Z,29.75
2019-05-20T15:07:29.190Z,25.90
2019-05-20T15:09:47.424Z,26.95
2019-05-20T15:12:18.256Z,29.95
2019-05-20T15:14:49.567Z,26.97
2019-05-20T15:17:20.422Z,27.98
2019-05-20T15:19:51.247Z,28.30
2019-05-20T15:22:21.933Z,32.88
2019-05-20T15:24:52.725Z,25.77
2019-05-20T15:27:23.636Z,26.80
2019-05-20T15:29:54.483Z,29.32
2019-05-20T15:32:25.287Z,29.48
2019-05-20T15:34:56.187Z,34.90
2019-05-20T15:37:26.981Z,28.27
2019-05-20T15:39:57.790Z,29.72
2019-05-20T15:42:28.599Z,25.90
2019-05-20T15:44:59.368Z,26.42
2019-05-20T15:47:30.299Z,26.12
2019-05-20T15:50:01.111Z,23.75
2019-05-20T15:52:32.059Z,32.13
2019-05-20T15:55:03.109Z,24.52
2019-05-20T15:57:34.082Z,22.70
2019-05-20T16:00:05.870Z,26.07
2019-05-20T16:02:36.810Z,29.57
2019-05-20T16:05:09.280Z,24.50
2019-05-20T16:07:40.035Z,23.83
2019-05-20T16:10:11.208Z,23.25
2019-05-20T16:12:42.163Z,22.25
2019-05-20T16:15:13.667Z,25.48
2019-05-20T16:17:47.954Z,20.75
2019-05-20T16:20:17.635Z,26.37
2019-05-20T16:22:48.368Z,20.90
2019-05-20T16:25:19.221Z,21.97
2019-05-20T16:27:50.065Z,22.35
2019-05-20T16:30:21.203Z,24.12
2019-05-20T16:32:51.912Z,20.20
2019-05-20T16:35:22.996Z,19.50
2019-05-20T16:37:53.905Z,20.23
2019-05-20T16:40:25.085Z,23.07
2019-05-20T16:42:55.914Z,20.62
2019-05-20T16:45:26.718Z,21.07
2019-05-20T16:47:57.876Z,17.85
2019-05-20T16:50:28.794Z,16.42
2019-05-20T16:52:59.738Z,17.50
2019-05-20T16:55:30.619Z,23.87
2019-05-20T16:58:01.570Z,17.80
2019-05-20T17:00:32.547Z,17.32
2019-05-20T17:03:03.466Z,19.12
2019-05-20T17:05:34.204Z,20.70
2019-05-20T17:08:04.961Z,19.55
2019-05-20T17:10:35.932Z,18.00
2019-05-20T17:13:06.641Z,18.17
2019-05-20T17:15:37.516Z,19.98
2019-05-20T17:18:08.137Z,16.85
2019-05-20T17:20:39.007Z,19.45
2019-05-20T17:23:09.786Z,17.95
2019-05-20T17:25:40.670Z,16.32
2019-05-20T17:28:11.787Z,22.75
2019-05-20T17:30:45.558Z,14.95
2019-05-20T17:33:14.883Z,17.25
2019-05-20T17:35:45.552Z,17.00
2019-05-20T17:38:16.453Z,21.35
2019-05-20T17:40:47.441Z,17.02
2019-05-20T17:43:20.120Z,18.85
2019-05-20T17:45:50.568Z,14.78
2019-05-20T17:48:21.568Z,16.87
2019-05-20T17:50:52.445Z,17.50
2019-05-20T17:53:23.339Z,14.93
2019-05-20T17:55:54.334Z,16.50
2019-05-20T17:58:25.118Z,20.32
2019-05-20T18:00:56.331Z,17.35
2019-05-20T18:03:27.164Z,33.65
2019-05-20T18:05:58.052Z,18.00
2019-05-20T18:08:30.015Z,19.55
2019-05-20T18:11:00.830Z,16.23
2019-05-20T18:13:31.880Z,14.73
2019-05-20T18:16:02.665Z,19.02
2019-05-20T18:18:33.676Z,20.00
2019-05-20T18:21:04.637Z,18.42
2019-05-20T18:23:35.452Z,16.35
2019-05-20T18:26:06.275Z,17.80
2019-05-20T18:28:37.149Z,18.55
2019-05-20T18:31:08.002Z,20.05
2019-05-20T18:33:39.037Z,17.45
2019-05-20T18:36:09.882Z,21.33
2019-05-20T18:38:40.654Z,16.40
2019-05-20T18:41:11.602Z,18.00
2019-05-20T18:43:42.499Z,16.45
2019-05-20T18:46:13.474Z,19.15
2019-05-20T18:48:44.379Z,16.45
2019-05-20T18:51:15.420Z,15.45
2019-05-20T18:53:46.067Z,18.80
2019-05-20T18:56:16.988Z,15.43
2019-05-20T18:58:47.741Z,18.82
2019-05-20T19:01:19.737Z,16.12
2019-05-20T19:03:50.781Z,17.20
2019-05-20T19:06:21.812Z,19.60
2019-05-20T19:08:52.732Z,16.67
2019-05-20T19:11:23.653Z,18.32
2019-05-20T19:13:54.611Z,19.57
2019-05-20T19:16:25.699Z,20.43
2019-05-20T19:18:56.529Z,15.90
2019-05-20T19:21:27.362Z,16.27
2019-05-20T19:23:58.251Z,21.75
2019-05-20T19:26:29.081Z,18.98
2019-05-20T19:29:00.087Z,20.00
2019-05-20T19:31:30.971Z,18.52
2019-05-20T19:34:01.909Z,20.52
2019-05-20T19:36:32.717Z,16.55
2019-05-20T19:39:03.682Z,21.23
2019-05-20T19:41:34.496Z,20.27
2019-05-20T19:44:05.703Z,20.45
2019-05-20T19:46:36.581Z,18.48
2019-05-20T19:49:07.403Z,17.57
2019-05-20T19:51:38.366Z,16.95
2019-05-20T19:54:09.266Z,16.65
2019-05-20T19:56:40.150Z,18.70
2019-05-20T19:59:10.891Z,16.07
2019-05-20T20:01:41.783Z,17.20
2019-05-20T20:04:12.613Z,15.88
2019-05-20T20:06:43.426Z,20.12
2019-05-20T20:09:14.382Z,17.55
2019-05-20T20:11:45.122Z,15.40
2019-05-20T20:14:16.021Z,18.15
2019-05-20T20:16:46.764Z,19.95
2019-05-20T20:19:17.457Z,18.42
2019-05-20T20:21:48.161Z,15.53
2019-05-20T20:24:19.378Z,20.30
2019-05-20T20:26:50.223Z,16.95
2019-05-20T20:29:21.050Z,15.63
2019-05-20T20:31:51.850Z,19.02
2019-05-20T20:34:22.655Z,15.58
2019-05-20T20:36:53.515Z,21.50
2019-05-20T20:39:24.575Z,15.65
2019-05-20T20:41:56.376Z,17.52
2019-05-20T20:44:27.186Z,14.95
2019-05-20T20:46:57.972Z,17.52
2019-05-20T20:49:29.123Z,16.97
2019-05-20T20:51:59.966Z,17.50
2019-05-20T20:54:30.679Z,16.32
2019-05-20T20:57:01.637Z,19.27
2019-05-20T20:59:32.677Z,21.50
2019-05-20T21:02:04.192Z,17.98
2019-05-20T21:04:35.064Z,17.52
2019-05-20T21:07:05.923Z,19.12
2019-05-20T21:09:36.877Z,21.23
2019-05-20T21:12:07.697Z,17.42
2019-05-20T21:14:38.630Z,21.05
2019-05-20T21:17:09.663Z,17.65
2019-05-20T21:19:40.481Z,17.45
2019-05-20T21:22:11.471Z,21.97
2019-05-20T21:24:42.227Z,20.15
2019-05-20T21:27:13.141Z,16.93
2019-05-20T21:29:44.306Z,16.20
2019-05-20T21:32:15.147Z,18.00
2019-05-20T21:34:46.110Z,15.78
2019-05-20T21:37:16.821Z,20.25
2019-05-20T21:39:47.775Z,18.73
2019-05-20T21:42:18.573Z,17.12
2019-05-20T21:44:49.407Z,17.05
2019-05-20T21:47:20.597Z,18.62
2019-05-20T21:49:51.460Z,20.17
2019-05-20T21:52:22.397Z,16.37
2019-05-20T21:54:53.035Z,18.67
2019-05-20T21:57:24.027Z,19.90
2019-05-20T21:59:54.916Z,19.12
2019-05-20T22:02:26.695Z,19.57
2019-05-20T22:04:57.680Z,17.75
2019-05-20T22:07:28.748Z,20.52
2019-05-20T22:09:59.499Z,19.70
2019-05-20T22:12:30.852Z,18.32
2019-05-20T22:15:02.013Z,21.52
2019-05-20T22:17:33.103Z,19.65
2019-05-20T22:20:03.872Z,19.90
2019-05-20T22:22:35.945Z,18.52
2019-05-20T22:25:06.937Z,16.87
2019-05-20T22:27:37.852Z,18.92
